createdAt,value
2022-09-23T00:02:13.803Z,100.00
2022-09-23T00:04:41.855Z,100.00
2022-09-23T00:07:09.342Z,100.00
2022-09-23T00:09:39.108Z,100.00
2022-09-23T00:12:10.628Z,100.00
2022-09-23T00:14:39.102Z,100.00
2022-09-23T00:17:08.536Z,100.00
2022-09-23T00:19:39.819Z,100.00
2022-09-23T00:22:18.691Z,100.00
2022-09-23T00:24:52.724Z,100.00
2022-09-23T00:30:09.775Z,100.00
2022-09-23T00:32:43.330Z,100.00
2022-09-23T00:35:29.016Z,100.00
2022-09-23T00:37:58.347Z,100.00
2022-09-23T00:40:28.805Z,100.00
2022-09-23T00:42:58.959Z,100.00
2022-09-23T00:45:28.731Z,100.00
2022-09-23T00:48:06.936Z,100.00
2022-09-23T00:50:54.226Z,100.00
2022-09-23T00:53:27.632Z,100.00
2022-09-23T00:56:07.000Z,100.00
2022-09-23T00:58:51.535Z,100.00
2022-09-23T01:01:20.512Z,100.00
2022-09-23T01:03:50.850Z,100.00
2022-09-23T01:06:17.762Z,100.00
2022-09-23T01:08:56.100Z,100.00
2022-09-23T01:12:09.692Z,100.00
2022-09-23T01:15:13.282Z,100.00
2022-09-23T01:18:04.910Z,100.00
2022-09-23T01:20:38.260Z,100.00
2022-09-23T01:23:24.334Z,100.00
2022-09-23T01:26:26.104Z,100.00
2022-09-23T01:29:06.814Z,100.00
2022-09-23T01:31:49.032Z,100.00
2022-09-23T01:35:12.374Z,100.00
2022-09-23T01:38:21.997Z,100.00
2022-09-23T01:41:13.406Z,100.00
2022-09-23T01:43:47.464Z,100.00
2022-09-23T01:46:21.691Z,100.00
2022-09-23T01:48:53.750Z,100.00
2022-09-23T01:51:34.101Z,100.00
2022-09-23T01:54:15.333Z,100.00
2022-09-23T01:57:04.970Z,100.00
2022-09-23T01:59:59.927Z,100.00
2022-09-23T02:03:02.959Z,100.00
2022-09-23T02:05:36.450Z,100.00
2022-09-23T02:08:14.773Z,100.00
2022-09-23T02:11:10.594Z,100.00
2022-09-23T02:13:59.994Z,100.00
2022-09-23T02:16:44.232Z,100.00
2022-09-23T02:19:35.324Z,100.00
2022-09-23T02:22:14.732Z,100.00
2022-09-23T02:24:45.018Z,100.00
2022-09-23T02:27:59.153Z,100.00
2022-09-23T02:30:56.038Z,100.00
2022-09-23T02:33:34.495Z,100.00
2022-09-23T02:36:12.072Z,100.00
2022-09-23T02:38:45.965Z,100.00
2022-09-23T02:41:28.841Z,100.00
2022-09-23T02:44:01.154Z,100.00
2022-09-23T02:46:32.118Z,100.00
2022-09-23T02:49:09.322Z,100.00
2022-09-23T02:51:39.639Z,100.00
2022-09-23T02:54:14.463Z,100.00
2022-09-23T02:56:53.836Z,100.00
2022-09-23T02:59:25.026Z,100.00
2022-09-23T03:01:55.929Z,100.00
2022-09-23T03:04:35.203Z,100.00
2022-09-23T03:07:09.220Z,100.00
2022-09-23T03:09:56.877Z,100.00
2022-09-23T03:12:35.679Z,100.00
2022-09-23T03:15:22.783Z,100.00
2022-09-23T03:18:01.080Z,100.00
2022-09-23T03:20:35.857Z,100.00
2022-09-23T03:23:09.727Z,100.00
2022-09-23T03:26:13.015Z,100.00
2022-09-23T03:28:44.233Z,100.00
2022-09-23T03:31:16.772Z,100.00
2022-09-23T03:33:55.769Z,100.00
2022-09-23T03:36:53.348Z,100.00
2022-09-23T03:39:33.403Z,100.00
2022-09-23T03:42:06.730Z,100.00
2022-09-23T03:44:43.335Z,100.00
2022-09-23T03:47:16.260Z,100.00
2022-09-23T03:49:52.923Z,100.00
2022-09-23T03:52:24.820Z,100.00
2022-09-23T03:55:07.453Z,100.00
2022-09-23T03:57:37.622Z,100.00
2022-09-23T04:00:06.883Z,100.00
2022-09-23T04:02:39.113Z,100.00
2022-09-23T04:05:07.438Z,100.00
2022-09-23T04:07:34.339Z,100.00
2022-09-23T04:10:01.589Z,100.00
2022-09-23T04:12:28.519Z,100.00
2022-09-23T04:14:55.436Z,100.00
2022-09-23T04:17:22.475Z,100.00
2022-09-23T04:19:49.397Z,100.00
2022-09-23T04:22:17.327Z,100.00
2022-09-23T04:24:45.595Z,100.00
2022-09-23T04:27:12.587Z,100.00
2022-09-23T04:29:39.527Z,100.00
2022-09-23T04:32:06.418Z,100.00
2022-09-23T04:34:33.611Z,100.00
2022-09-23T04:37:00.413Z,100.00
2022-09-23T04:39:27.339Z,100.00
2022-09-23T04:41:55.436Z,100.00
2022-09-23T04:44:22.218Z,100.00
2022-09-23T04:46:53.528Z,100.00
2022-09-23T04:49:20.512Z,100.00
2022-09-23T04:51:47.337Z,100.00
2022-09-23T04:54:21.256Z,100.00
2022-09-23T04:56:56.463Z,100.00
2022-09-23T04:59:23.932Z,100.00
2022-09-23T05:01:51.394Z,100.00
2022-09-23T05:04:18.361Z,100.00
2022-09-23T05:06:45.420Z,100.00
2022-09-23T05:09:16.857Z,100.00
2022-09-23T05:11:44.944Z,100.00
2022-09-23T05:14:27.542Z,100.00
2022-09-23T05:16:54.463Z,100.00
2022-09-23T05:19:22.483Z,100.00
2022-09-23T05:21:49.324Z,100.00
2022-09-23T05:24:16.447Z,100.00
2022-09-23T05:26:43.688Z,100.00
2022-09-23T05:29:12.572Z,100.00
2022-09-23T05:31:39.405Z,100.00
2022-09-23T05:34:09.854Z,100.00
2022-09-23T05:36:38.788Z,100.00
2022-09-23T05:39:09.397Z,100.00
2022-09-23T05:44:33.566Z,100.00
2022-09-23T05:47:27.259Z,100.00
2022-09-23T05:48:16.640Z,100.00
2022-09-23T05:49:59.898Z,100.00
2022-09-23T05:52:27.341Z,100.00
2022-09-23T05:55:22.102Z,100.00
2022-09-23T05:57:48.812Z,100.00
2022-09-23T06:00:16.025Z,100.00
2022-09-23T06:02:46.445Z,100.00
2022-09-23T06:05:13.538Z,100.00
2022-09-23T06:07:40.377Z,100.00
2022-09-23T06:10:08.179Z,100.00
2022-09-23T06:12:38.172Z,100.00
2022-09-23T06:15:14.142Z,100.00
2022-09-23T06:17:58.169Z,100.00
2022-09-23T06:20:26.142Z,100.00
2022-09-23T06:22:55.584Z,100.00
2022-09-23T06:25:22.980Z,100.00
2022-09-23T06:27:54.825Z,100.00
2022-09-23T06:30:24.304Z,100.00
2022-09-23T06:32:53.208Z,100.00
2022-09-23T06:35:27.489Z,100.00
2022-09-23T06:37:54.956Z,100.00
2022-09-23T06:40:22.301Z,100.00
2022-09-23T06:43:00.082Z,100.00
2022-09-23T06:45:28.094Z,100.00
2022-09-23T06:48:09.476Z,100.00
2022-09-23T06:50:40.923Z,100.00
2022-09-23T06:53:08.057Z,100.00
2022-09-23T06:55:34.924Z,100.00
2022-09-23T06:58:01.827Z,100.00
2022-09-23T07:00:28.874Z,100.00
2022-09-23T07:02:56.542Z,100.00
2022-09-23T07:05:23.626Z,100.00
2022-09-23T07:07:50.540Z,100.00
2022-09-23T07:10:17.607Z,100.00
2022-09-23T07:12:44.581Z,100.00
2022-09-23T07:15:11.684Z,100.00
2022-09-23T07:17:42.945Z,100.00
2022-09-23T07:20:12.894Z,100.00
2022-09-23T07:22:39.936Z,100.00
2022-09-23T07:25:07.496Z,100.00
2022-09-23T07:27:34.825Z,100.00
2022-09-23T07:30:09.267Z,100.00
2022-09-23T07:32:47.991Z,100.00
2022-09-23T07:35:16.515Z,100.00
2022-09-23T07:37:43.445Z,100.00
2022-09-23T07:40:12.909Z,100.00
2022-09-23T07:42:40.449Z,100.00
2022-09-23T07:45:08.551Z,100.00
2022-09-23T07:47:35.793Z,100.00
2022-09-23T07:50:02.801Z,100.00
2022-09-23T07:52:31.114Z,100.00
2022-09-23T07:55:07.816Z,100.00
2022-09-23T07:57:34.976Z,100.00
2022-09-23T08:00:02.786Z,100.00
2022-09-23T08:02:38.956Z,100.00
2022-09-23T08:05:18.100Z,100.00
2022-09-23T08:07:45.021Z,100.00
2022-09-23T08:10:11.861Z,100.00
2022-09-23T08:12:39.232Z,100.00
2022-09-23T08:15:06.755Z,100.00
2022-09-23T08:17:33.643Z,100.00
2022-09-23T08:20:00.776Z,100.00
2022-09-23T08:22:28.049Z,100.00
2022-09-23T08:24:56.564Z,100.00
2022-09-23T08:27:23.762Z,100.00
2022-09-23T08:29:55.687Z,100.00
2022-09-23T08:32:22.483Z,100.00
2022-09-23T08:34:49.325Z,100.00
2022-09-23T08:37:16.180Z,100.00
2022-09-23T08:39:45.160Z,100.00
2022-09-23T08:42:20.214Z,100.00
2022-09-23T08:45:01.066Z,100.00
2022-09-23T08:47:48.588Z,100.00
2022-09-23T08:50:26.814Z,100.00
2022-09-23T08:52:58.265Z,100.00
2022-09-23T08:55:41.548Z,100.00
2022-09-23T08:58:40.796Z,98.83
2022-09-23T09:01:30.300Z,99.96
2022-09-23T09:04:03.132Z,99.47
2022-09-23T09:07:34.815Z,97.81
2022-09-23T09:10:16.438Z,94.25
2022-09-23T09:13:25.398Z,95.48
2022-09-23T09:16:36.574Z,97.41
2022-09-23T09:19:51.460Z,94.40
2022-09-23T09:22:39.250Z,93.59
2022-09-23T09:25:24.385Z,94.75
2022-09-23T09:27:53.331Z,98.92
2022-09-23T09:30:20.691Z,98.75
2022-09-23T09:32:50.595Z,93.87
2022-09-23T09:35:41.869Z,88.98
2022-09-23T09:38:08.915Z,87.37
2022-09-23T09:40:47.772Z,83.40
2022-09-23T09:43:24.549Z,82.90
2022-09-23T09:46:33.615Z,81.35
2022-09-23T09:49:11.053Z,86.58
2022-09-23T09:51:41.981Z,79.53
2022-09-23T09:54:22.552Z,80.02
2022-09-23T09:56:51.403Z,83.16
2022-09-23T09:59:28.243Z,85.64
2022-09-23T10:02:38.459Z,85.49
2022-09-23T10:05:07.094Z,84.76
2022-09-23T10:07:34.932Z,81.81
2022-09-23T10:10:31.915Z,80.73
2022-09-23T10:13:15.608Z,77.85
2022-09-23T10:15:45.216Z,77.37
2022-09-23T10:18:38.129Z,76.02
2022-09-23T10:21:14.456Z,73.98
2022-09-23T10:23:44.967Z,73.61
2022-09-23T10:26:16.827Z,76.28
2022-09-23T10:28:46.592Z,78.76
2022-09-23T10:31:36.725Z,78.51
2022-09-23T10:34:25.998Z,82.71
2022-09-23T10:37:18.704Z,83.03
2022-09-23T10:40:04.803Z,83.62
2022-09-23T10:43:22.240Z,86.31
2022-09-23T10:46:15.372Z,85.04
2022-09-23T10:49:09.724Z,82.41
2022-09-23T10:52:15.651Z,82.54
2022-09-23T10:55:16.344Z,82.71
2022-09-23T10:57:46.381Z,77.21
2022-09-23T11:00:16.374Z,78.51
2022-09-23T11:02:49.057Z,76.45
2022-09-23T11:05:54.129Z,76.04
2022-09-23T11:09:06.336Z,76.49
2022-09-23T11:11:45.531Z,76.22
2022-09-23T11:14:31.817Z,76.79
2022-09-23T11:17:14.245Z,78.09
2022-09-23T11:20:26.598Z,78.53
2022-09-23T11:22:59.544Z,81.84
2022-09-23T11:25:46.297Z,75.88
2022-09-23T11:28:40.099Z,79.76
2022-09-23T11:31:27.304Z,81.48
2022-09-23T11:34:02.986Z,80.93
2022-09-23T11:37:18.336Z,81.69
2022-09-23T11:40:34.541Z,78.20
2022-09-23T11:43:13.726Z,81.06
2022-09-23T11:45:44.426Z,80.35
2022-09-23T11:48:18.301Z,73.51
2022-09-23T11:51:05.904Z,68.93
2022-09-23T11:53:56.452Z,70.77
2022-09-23T11:56:36.889Z,72.51
2022-09-23T11:59:40.526Z,73.19
2022-09-23T12:02:36.259Z,70.64
2022-09-23T12:05:15.430Z,69.29
2022-09-23T12:07:53.945Z,67.95
2022-09-23T12:10:27.098Z,72.91
2022-09-23T12:13:05.960Z,73.63
2022-09-23T12:15:48.460Z,68.72
2022-09-23T12:18:35.433Z,66.94
2022-09-23T12:21:49.391Z,69.70
2022-09-23T12:24:25.563Z,72.36
2022-09-23T12:26:59.297Z,71.89
2022-09-23T12:29:29.973Z,72.29
2022-09-23T12:32:09.461Z,72.00
2022-09-23T12:34:48.307Z,68.81
2022-09-23T12:37:37.717Z,66.96
2022-09-23T12:40:28.241Z,65.92
2022-09-23T12:42:55.835Z,63.28
2022-09-23T12:45:33.304Z,61.71
2022-09-23T12:48:04.065Z,63.45
2022-09-23T12:50:50.662Z,63.50
2022-09-23T12:53:32.758Z,60.81
2022-09-23T12:56:17.993Z,59.49
2022-09-23T12:58:47.903Z,59.27
2022-09-23T13:01:18.197Z,58.57
2022-09-23T13:04:12.974Z,57.20
2022-09-23T13:06:42.079Z,57.18
2022-09-23T13:09:24.352Z,58.96
2022-09-23T13:11:55.918Z,59.77
2022-09-23T13:14:40.442Z,61.76
2022-09-23T13:17:33.620Z,58.31
2022-09-23T13:20:25.852Z,55.66
2022-09-23T13:22:53.096Z,52.64
2022-09-23T13:25:29.124Z,51.74
2022-09-23T13:28:03.294Z,52.91
2022-09-23T13:30:30.029Z,55.79
2022-09-23T13:33:10.616Z,57.43
2022-09-23T13:35:44.092Z,60.12
2022-09-23T13:38:27.626Z,61.54
2022-09-23T13:41:20.005Z,59.55
2022-09-23T13:43:55.419Z,60.93
2022-09-23T13:46:26.033Z,61.92
2022-09-23T13:48:55.135Z,60.20
2022-09-23T13:51:34.585Z,57.63
2022-09-23T13:54:33.050Z,53.02
2022-09-23T13:57:00.534Z,49.47
2022-09-23T13:59:30.494Z,49.41
2022-09-23T14:02:16.493Z,48.56
2022-09-23T14:04:44.663Z,50.57
2022-09-23T14:07:18.610Z,50.80
2022-09-23T14:09:51.800Z,50.78
2022-09-23T14:12:21.909Z,49.88
2022-09-23T14:14:52.564Z,50.52
2022-09-23T14:17:24.790Z,51.78
2022-09-23T14:19:51.975Z,50.64
2022-09-23T14:22:23.185Z,50.05
2022-09-23T14:24:51.005Z,47.68
2022-09-23T14:27:29.390Z,47.04
2022-09-23T14:29:57.779Z,45.84
2022-09-23T14:32:28.518Z,46.45
2022-09-23T14:35:27.619Z,44.80
2022-09-23T14:38:16.681Z,45.95
2022-09-23T14:41:17.643Z,47.98
2022-09-23T14:43:56.754Z,49.22
2022-09-23T14:46:29.305Z,49.97
2022-09-23T14:48:59.151Z,49.27
2022-09-23T14:51:54.402Z,50.58
2022-09-23T14:54:38.881Z,49.85
2022-09-23T14:57:26.659Z,52.42
2022-09-23T15:00:09.283Z,56.32
2022-09-23T15:02:39.731Z,60.45
2022-09-23T15:05:23.083Z,67.73
2022-09-23T15:07:57.527Z,70.66
2022-09-23T15:10:48.713Z,72.93
2022-09-23T15:13:26.824Z,78.45
2022-09-23T15:18:42.307Z,86.31
2022-09-23T15:21:10.978Z,89.02
2022-09-23T15:23:44.093Z,90.26
2022-09-23T15:26:16.162Z,91.30
2022-09-23T15:28:43.982Z,91.86
2022-09-23T15:31:16.257Z,92.34
2022-09-23T15:33:44.025Z,94.03
2022-09-23T15:36:27.359Z,95.21
2022-09-23T15:39:11.757Z,96.32
2022-09-23T15:41:38.767Z,96.98
2022-09-23T15:44:13.965Z,99.06
2022-09-23T15:46:46.501Z,99.93
2022-09-23T15:49:32.496Z,100.00
2022-09-23T15:52:01.550Z,100.00
2022-09-23T15:54:29.410Z,100.00
2022-09-23T15:57:08.457Z,100.00
2022-09-23T15:59:37.665Z,100.00
2022-09-23T16:02:20.765Z,100.00
2022-09-23T16:04:54.533Z,100.00
2022-09-23T16:07:21.428Z,100.00
2022-09-23T16:10:06.579Z,100.00
2022-09-23T16:12:33.341Z,100.00
2022-09-23T16:15:00.121Z,100.00
2022-09-23T16:17:30.645Z,100.00
2022-09-23T16:19:57.581Z,100.00
2022-09-23T16:22:31.283Z,100.00
2022-09-23T16:24:58.089Z,100.00
2022-09-23T16:27:25.559Z,100.00
2022-09-23T16:29:59.239Z,100.00
2022-09-23T16:32:35.423Z,100.00
2022-09-23T16:35:02.631Z,100.00
2022-09-23T16:37:29.669Z,100.00
2022-09-23T16:39:56.683Z,100.00
2022-09-23T16:42:32.001Z,100.00
2022-09-23T16:44:58.896Z,100.00
2022-09-23T16:47:25.805Z,100.00
2022-09-23T16:49:52.644Z,100.00
2022-09-23T16:52:23.514Z,100.00
2022-09-23T16:54:50.547Z,100.00
2022-09-23T16:57:17.493Z,100.00
2022-09-23T17:00:02.904Z,100.00
2022-09-23T17:02:48.963Z,100.00
2022-09-23T17:05:17.990Z,100.00
2022-09-23T17:07:44.920Z,100.00
2022-09-23T17:10:12.432Z,100.00
2022-09-23T17:12:39.344Z,100.00
2022-09-23T17:15:06.809Z,100.00
2022-09-23T17:17:36.973Z,100.00
2022-09-23T17:20:05.406Z,100.00
2022-09-23T17:22:33.346Z,100.00
2022-09-23T17:25:03.105Z,100.00
2022-09-23T17:30:26.864Z,100.00
2022-09-23T17:32:53.942Z,100.00
2022-09-23T17:35:20.759Z,100.00
2022-09-23T17:37:56.071Z,100.00
2022-09-23T17:40:25.583Z,100.00
2022-09-23T17:42:59.476Z,100.00
2022-09-23T17:45:26.345Z,100.00
2022-09-23T17:47:54.275Z,100.00
2022-09-23T17:50:24.156Z,100.00
2022-09-23T17:52:51.158Z,100.00
2022-09-23T17:55:18.648Z,100.00
2022-09-23T17:57:50.223Z,100.00
2022-09-23T18:00:32.144Z,100.00
2022-09-23T18:02:59.200Z,100.00
2022-09-23T18:05:28.257Z,100.00
2022-09-23T18:07:55.074Z,100.00
2022-09-23T18:10:24.023Z,100.00
2022-09-23T18:12:50.816Z,100.00
2022-09-23T18:15:25.144Z,100.00
2022-09-23T18:17:52.040Z,100.00
2022-09-23T18:20:18.875Z,100.00
2022-09-23T18:22:45.685Z,100.00
2022-09-23T18:25:35.051Z,100.00
2022-09-23T18:28:08.515Z,100.00
2022-09-23T18:30:35.403Z,100.00
2022-09-23T18:33:02.844Z,100.00
2022-09-23T18:35:30.156Z,100.00
2022-09-23T18:38:20.954Z,100.00
2022-09-23T18:40:57.162Z,100.00
2022-09-23T18:43:37.264Z,100.00
2022-09-23T18:46:10.441Z,100.00
2022-09-23T18:48:55.856Z,100.00
2022-09-23T18:51:28.676Z,100.00
2022-09-23T18:54:09.779Z,100.00
2022-09-23T18:56:41.477Z,100.00
2022-09-23T18:59:12.398Z,100.00
2022-09-23T19:01:39.437Z,100.00
2022-09-23T19:04:19.968Z,100.00
2022-09-23T19:06:47.329Z,100.00
2022-09-23T19:09:16.314Z,100.00
2022-09-23T19:11:43.822Z,100.00
2022-09-23T19:14:11.770Z,100.00
2022-09-23T19:16:40.378Z,100.00
2022-09-23T19:19:08.310Z,100.00
2022-09-23T19:21:35.840Z,100.00
2022-09-23T19:24:05.899Z,100.00
2022-09-23T19:26:38.746Z,100.00
2022-09-23T19:29:21.207Z,100.00
2022-09-23T19:31:48.614Z,100.00
2022-09-23T19:34:18.856Z,100.00
2022-09-23T19:36:47.441Z,100.00
2022-09-23T19:39:14.223Z,100.00
2022-09-23T19:41:41.088Z,100.00
2022-09-23T19:44:08.241Z,100.00
2022-09-23T19:46:37.573Z,100.00
2022-09-23T19:49:08.697Z,100.00
2022-09-23T19:51:36.142Z,100.00
2022-09-23T19:54:05.056Z,100.00
2022-09-23T19:56:33.192Z,100.00
2022-09-23T19:59:02.583Z,100.00
2022-09-23T20:01:31.530Z,100.00
2022-09-23T20:03:59.157Z,100.00
2022-09-23T20:06:29.964Z,100.00
2022-09-23T20:08:58.975Z,100.00
2022-09-23T20:11:28.543Z,100.00
2022-09-23T20:14:01.617Z,100.00
2022-09-23T20:16:33.650Z,100.00
2022-09-23T20:19:03.500Z,100.00
2022-09-23T20:21:31.100Z,100.00
2022-09-23T20:24:02.235Z,100.00
2022-09-23T20:26:47.804Z,100.00
2022-09-23T20:29:16.866Z,100.00
2022-09-23T20:31:45.680Z,100.00
2022-09-23T20:34:12.716Z,100.00
2022-09-23T20:36:41.332Z,100.00
2022-09-23T20:39:09.689Z,100.00
2022-09-23T20:41:39.557Z,100.00
2022-09-23T20:44:17.065Z,100.00
2022-09-23T20:46:48.598Z,100.00
2022-09-23T20:49:40.832Z,100.00
2022-09-23T20:52:08.674Z,100.00
2022-09-23T20:54:38.314Z,100.00
2022-09-23T20:57:06.002Z,100.00
2022-09-23T20:59:34.241Z,100.00
2022-09-23T21:02:33.233Z,100.00
2022-09-23T21:05:00.210Z,100.00
2022-09-23T21:07:27.202Z,100.00
2022-09-23T21:09:54.128Z,100.00
2022-09-23T21:12:22.050Z,100.00
2022-09-23T21:14:49.326Z,100.00
2022-09-23T21:17:16.902Z,100.00
2022-09-23T21:19:43.711Z,100.00
2022-09-23T21:22:11.909Z,100.00
2022-09-23T21:25:25.879Z,100.00
2022-09-23T21:27:26.608Z,100.00
2022-09-23T21:29:53.405Z,100.00
2022-09-23T21:32:20.959Z,100.00
2022-09-23T21:34:48.467Z,100.00
2022-09-23T21:37:15.283Z,100.00
2022-09-23T21:40:02.203Z,100.00
2022-09-23T21:42:29.471Z,100.00
2022-09-23T21:44:56.527Z,100.00
2022-09-23T21:47:23.342Z,100.00
2022-09-23T21:49:51.098Z,100.00
2022-09-23T21:52:18.248Z,100.00
2022-09-23T21:54:46.105Z,100.00
2022-09-23T21:57:13.474Z,100.00
2022-09-23T21:59:40.294Z,100.00
2022-09-23T22:02:07.383Z,100.00
2022-09-23T22:04:34.327Z,100.00
2022-09-23T22:07:01.674Z,100.00
2022-09-23T22:09:28.676Z,100.00
2022-09-23T22:12:08.971Z,100.00
2022-09-23T22:14:35.949Z,100.00
2022-09-23T22:17:04.888Z,100.00
2022-09-23T22:19:35.549Z,100.00
2022-09-23T22:22:09.347Z,100.00
2022-09-23T22:24:36.130Z,100.00
2022-09-23T22:27:03.067Z,100.00
2022-09-23T22:29:48.836Z,100.00
2022-09-23T22:32:38.649Z,100.00
2022-09-23T22:35:15.959Z,100.00
2022-09-23T22:37:43.387Z,100.00
2022-09-23T22:40:14.845Z,100.00
2022-09-23T22:42:43.153Z,100.00
2022-09-23T22:45:11.668Z,100.00
2022-09-23T22:47:40.468Z,100.00
2022-09-23T22:50:08.872Z,100.00
2022-09-23T22:52:37.305Z,100.00
2022-09-23T22:55:07.356Z,100.00
2022-09-23T22:57:34.513Z,100.00
2022-09-23T23:00:03.210Z,100.00
2022-09-23T23:02:30.868Z,100.00
2022-09-23T23:04:59.961Z,100.00
2022-09-23T23:07:26.877Z,100.00
2022-09-23T23:09:57.809Z,100.00
2022-09-23T23:12:26.155Z,100.00
2022-09-23T23:14:57.066Z,100.00
2022-09-23T23:17:23.986Z,100.00
2022-09-23T23:19:50.821Z,100.00
2022-09-23T23:22:17.679Z,100.00
2022-09-23T23:24:45.233Z,100.00
2022-09-23T23:27:11.985Z,100.00
2022-09-23T23:29:38.802Z,100.00
2022-09-23T23:32:07.153Z,100.00
2022-09-23T23:34:34.027Z,100.00
2022-09-23T23:37:00.971Z,100.00
2022-09-23T23:39:27.954Z,100.00
2022-09-23T23:41:56.662Z,100.00
2022-09-23T23:44:25.309Z,100.00
2022-09-23T23:46:53.104Z,100.00
2022-09-23T23:49:21.055Z,100.00
2022-09-23T23:51:48.335Z,100.00
2022-09-23T23:54:27.818Z,100.00
2022-09-23T23:56:54.776Z,100.00
2022-09-23T23:59:21.559Z,100.00
